Прогноз погоды TAF Актау

Прогноз погоды TAF: 
TAF UATE 290503Z 2906/3006 02008G14MPS 9999 SCT033CB TX40/2909Z TN23/3002Z TEMPO 2906/2912 34016G22MPS 1000 BLDU SCT007
Аэропорт подробнее: 
Регион: